sensor_id;sensor_type;location;lat;lon;timestamp;P1;durP1;ratioP1;P2;durP2;ratioP2
8652;SDS011;4364;52.426;9.424;2022-11-20T00:01:15;124.83;;;32.70;;
8652;SDS011;4364;52.426;9.424;2022-11-20T00:03:43;125.43;;;31.87;;
8652;SDS011;4364;52.426;9.424;2022-11-20T00:06:11;113.10;;;32.23;;
8652;SDS011;4364;52.426;9.424;2022-11-20T00:08:40;183.30;;;41.20;;
8652;SDS011;4364;52.426;9.424;2022-11-20T00:11:08;142.17;;;35.37;;
8652;SDS011;4364;52.426;9.424;2022-11-20T00:13:41;94.67;;;25.67;;
8652;SDS011;4364;52.426;9.424;2022-11-20T00:16:09;134.07;;;39.00;;
8652;SDS011;4364;52.426;9.424;2022-11-20T00:18:37;41.57;;;16.40;;
8652;SDS011;4364;52.426;9.424;2022-11-20T00:21:04;24.00;;;13.57;;
8652;SDS011;4364;52.426;9.424;2022-11-20T00:23:32;20.80;;;12.10;;
8652;SDS011;4364;52.426;9.424;2022-11-20T00:26:02;54.97;;;23.97;;
8652;SDS011;4364;52.426;9.424;2022-11-20T00:28:33;43.00;;;20.13;;
8652;SDS011;4364;52.426;9.424;2022-11-20T00:31:00;28.10;;;15.43;;
8652;SDS011;4364;52.426;9.424;2022-11-20T00:33:28;35.90;;;16.57;;
8652;SDS011;4364;52.426;9.424;2022-11-20T00:35:59;33.40;;;17.00;;
8652;SDS011;4364;52.426;9.424;2022-11-20T00:38:33;24.93;;;13.97;;
8652;SDS011;4364;52.426;9.424;2022-11-20T00:41:02;20.13;;;12.07;;
8652;SDS011;4364;52.426;9.424;2022-11-20T00:43:30;19.50;;;12.20;;
8652;SDS011;4364;52.426;9.424;2022-11-20T00:45:57;24.73;;;13.20;;
8652;SDS011;4364;52.426;9.424;2022-11-20T00:48:24;19.77;;;12.13;;
8652;SDS011;4364;52.426;9.424;2022-11-20T00:50:51;17.63;;;10.70;;
8652;SDS011;4364;52.426;9.424;2022-11-20T00:53:19;18.60;;;11.07;;
8652;SDS011;4364;52.426;9.424;2022-11-20T00:55:59;17.80;;;11.13;;
8652;SDS011;4364;52.426;9.424;2022-11-20T00:58:29;18.63;;;11.00;;
8652;SDS011;4364;52.426;9.424;2022-11-20T01:01:24;16.10;;;10.23;;
8652;SDS011;4364;52.426;9.424;2022-11-20T01:03:51;16.47;;;10.33;;
8652;SDS011;4364;52.426;9.424;2022-11-20T01:06:20;18.60;;;11.53;;
8652;SDS011;4364;52.426;9.424;2022-11-20T01:08:49;19.97;;;10.93;;
8652;SDS011;4364;52.426;9.424;2022-11-20T01:11:19;17.37;;;9.83;;
8652;SDS011;4364;52.426;9.424;2022-11-20T01:13:48;16.57;;;10.47;;
8652;SDS011;4364;52.426;9.424;2022-11-20T01:16:20;16.30;;;10.27;;
8652;SDS011;4364;52.426;9.424;2022-11-20T01:18:58;15.93;;;10.27;;
8652;SDS011;4364;52.426;9.424;2022-11-20T01:21:27;17.13;;;10.57;;
8652;SDS011;4364;52.426;9.424;2022-11-20T01:23:59;16.73;;;10.80;;
8652;SDS011;4364;52.426;9.424;2022-11-20T01:26:28;17.43;;;10.50;;
8652;SDS011;4364;52.426;9.424;2022-11-20T01:28:56;17.37;;;10.83;;
8652;SDS011;4364;52.426;9.424;2022-11-20T01:31:28;18.07;;;9.70;;
8652;SDS011;4364;52.426;9.424;2022-11-20T01:33:57;19.97;;;11.80;;
8652;SDS011;4364;52.426;9.424;2022-11-20T01:36:26;17.33;;;10.83;;
8652;SDS011;4364;52.426;9.424;2022-11-20T01:38:55;17.47;;;10.87;;
8652;SDS011;4364;52.426;9.424;2022-11-20T01:41:24;19.70;;;11.57;;
8652;SDS011;4364;52.426;9.424;2022-11-20T01:44:10;16.20;;;10.10;;
8652;SDS011;4364;52.426;9.424;2022-11-20T01:46:42;14.93;;;10.53;;
8652;SDS011;4364;52.426;9.424;2022-11-20T01:49:40;16.17;;;9.83;;
8652;SDS011;4364;52.426;9.424;2022-11-20T01:52:17;16.43;;;9.90;;
8652;SDS011;4364;52.426;9.424;2022-11-20T01:55:11;16.93;;;10.43;;
8652;SDS011;4364;52.426;9.424;2022-11-20T01:57:40;15.67;;;9.67;;
8652;SDS011;4364;52.426;9.424;2022-11-20T02:00:11;17.13;;;10.83;;
8652;SDS011;4364;52.426;9.424;2022-11-20T02:02:44;18.23;;;11.00;;
8652;SDS011;4364;52.426;9.424;2022-11-20T02:05:22;17.40;;;9.77;;
8652;SDS011;4364;52.426;9.424;2022-11-20T02:07:54;16.67;;;9.83;;
8652;SDS011;4364;52.426;9.424;2022-11-20T02:10:23;16.33;;;9.60;;
8652;SDS011;4364;52.426;9.424;2022-11-20T02:12:50;17.53;;;9.93;;
8652;SDS011;4364;52.426;9.424;2022-11-20T02:15:36;16.30;;;9.83;;
8652;SDS011;4364;52.426;9.424;2022-11-20T02:18:03;16.47;;;10.07;;
8652;SDS011;4364;52.426;9.424;2022-11-20T02:20:31;17.10;;;9.97;;
8652;SDS011;4364;52.426;9.424;2022-11-20T02:23:05;14.47;;;9.17;;
8652;SDS011;4364;52.426;9.424;2022-11-20T02:25:38;19.50;;;9.90;;
8652;SDS011;4364;52.426;9.424;2022-11-20T02:28:07;16.63;;;10.43;;
8652;SDS011;4364;52.426;9.424;2022-11-20T02:30:33;18.37;;;9.87;;
8652;SDS011;4364;52.426;9.424;2022-11-20T02:33:00;16.47;;;10.93;;
8652;SDS011;4364;52.426;9.424;2022-11-20T02:37:54;15.53;;;9.60;;
8652;SDS011;4364;52.426;9.424;2022-11-20T02:40:22;16.40;;;9.87;;
8652;SDS011;4364;52.426;9.424;2022-11-20T02:42:52;16.57;;;9.87;;
8652;SDS011;4364;52.426;9.424;2022-11-20T02:45:19;17.77;;;9.87;;
8652;SDS011;4364;52.426;9.424;2022-11-20T02:47:46;17.20;;;10.00;;
8652;SDS011;4364;52.426;9.424;2022-11-20T02:50:13;18.80;;;10.17;;
8652;SDS011;4364;52.426;9.424;2022-11-20T02:52:39;17.23;;;10.17;;
8652;SDS011;4364;52.426;9.424;2022-11-20T02:55:06;17.30;;;10.17;;
8652;SDS011;4364;52.426;9.424;2022-11-20T02:57:33;17.20;;;10.20;;
8652;SDS011;4364;52.426;9.424;2022-11-20T02:59:59;16.43;;;9.73;;
8652;SDS011;4364;52.426;9.424;2022-11-20T03:02:29;18.43;;;10.77;;
8652;SDS011;4364;52.426;9.424;2022-11-20T03:04:56;18.07;;;10.27;;
8652;SDS011;4364;52.426;9.424;2022-11-20T03:07:23;18.00;;;10.07;;
8652;SDS011;4364;52.426;9.424;2022-11-20T03:09:50;19.20;;;11.33;;
8652;SDS011;4364;52.426;9.424;2022-11-20T03:12:17;17.50;;;11.17;;
8652;SDS011;4364;52.426;9.424;2022-11-20T03:14:44;21.17;;;11.60;;
8652;SDS011;4364;52.426;9.424;2022-11-20T03:17:17;19.03;;;12.03;;
8652;SDS011;4364;52.426;9.424;2022-11-20T03:19:44;18.77;;;11.43;;
8652;SDS011;4364;52.426;9.424;2022-11-20T03:22:10;18.10;;;11.17;;
8652;SDS011;4364;52.426;9.424;2022-11-20T03:24:37;19.47;;;10.80;;
8652;SDS011;4364;52.426;9.424;2022-11-20T03:27:03;16.47;;;10.63;;
8652;SDS011;4364;52.426;9.424;2022-11-20T03:29:30;17.50;;;10.70;;
8652;SDS011;4364;52.426;9.424;2022-11-20T03:31:56;19.33;;;10.77;;
8652;SDS011;4364;52.426;9.424;2022-11-20T03:34:23;16.30;;;10.23;;
8652;SDS011;4364;52.426;9.424;2022-11-20T03:36:50;15.10;;;9.70;;
8652;SDS011;4364;52.426;9.424;2022-11-20T03:39:16;16.80;;;9.87;;
8652;SDS011;4364;52.426;9.424;2022-11-20T03:41:43;16.27;;;10.07;;
8652;SDS011;4364;52.426;9.424;2022-11-20T03:44:10;14.30;;;9.07;;
8652;SDS011;4364;52.426;9.424;2022-11-20T03:46:37;16.03;;;9.40;;
8652;SDS011;4364;52.426;9.424;2022-11-20T03:49:04;13.83;;;9.30;;
8652;SDS011;4364;52.426;9.424;2022-11-20T03:51:32;16.87;;;9.77;;
8652;SDS011;4364;52.426;9.424;2022-11-20T03:54:05;14.93;;;10.13;;
8652;SDS011;4364;52.426;9.424;2022-11-20T03:56:34;14.83;;;9.53;;
8652;SDS011;4364;52.426;9.424;2022-11-20T03:59:02;16.63;;;9.40;;
8652;SDS011;4364;52.426;9.424;2022-11-20T04:01:30;15.30;;;9.40;;
8652;SDS011;4364;52.426;9.424;2022-11-20T04:03:59;17.07;;;9.83;;
8652;SDS011;4364;52.426;9.424;2022-11-20T04:06:26;16.00;;;9.80;;
8652;SDS011;4364;52.426;9.424;2022-11-20T04:08:55;13.37;;;8.70;;
8652;SDS011;4364;52.426;9.424;2022-11-20T04:11:26;16.80;;;9.03;;
8652;SDS011;4364;52.426;9.424;2022-11-20T04:14:00;15.30;;;8.90;;
8652;SDS011;4364;52.426;9.424;2022-11-20T04:16:29;15.37;;;9.07;;
8652;SDS011;4364;52.426;9.424;2022-11-20T04:18:58;16.03;;;9.83;;
8652;SDS011;4364;52.426;9.424;2022-11-20T04:21:26;15.20;;;8.53;;
8652;SDS011;4364;52.426;9.424;2022-11-20T04:23:53;14.23;;;8.97;;
8652;SDS011;4364;52.426;9.424;2022-11-20T04:26:20;13.47;;;8.27;;
8652;SDS011;4364;52.426;9.424;2022-11-20T04:28:49;13.50;;;8.90;;
8652;SDS011;4364;52.426;9.424;2022-11-20T04:31:16;13.77;;;8.80;;
8652;SDS011;4364;52.426;9.424;2022-11-20T04:33:45;14.67;;;9.23;;
8652;SDS011;4364;52.426;9.424;2022-11-20T04:36:13;14.77;;;9.10;;
8652;SDS011;4364;52.426;9.424;2022-11-20T04:38:41;16.57;;;9.67;;
8652;SDS011;4364;52.426;9.424;2022-11-20T04:41:15;17.30;;;9.87;;
8652;SDS011;4364;52.426;9.424;2022-11-20T04:43:47;16.60;;;9.50;;
8652;SDS011;4364;52.426;9.424;2022-11-20T04:46:16;14.13;;;8.97;;
8652;SDS011;4364;52.426;9.424;2022-11-20T04:48:43;15.57;;;9.23;;
8652;SDS011;4364;52.426;9.424;2022-11-20T04:51:10;13.80;;;8.20;;
8652;SDS011;4364;52.426;9.424;2022-11-20T04:53:41;13.97;;;8.30;;
8652;SDS011;4364;52.426;9.424;2022-11-20T04:56:08;14.47;;;8.60;;
8652;SDS011;4364;52.426;9.424;2022-11-20T04:58:37;12.97;;;8.57;;
8652;SDS011;4364;52.426;9.424;2022-11-20T05:01:12;15.70;;;9.23;;
8652;SDS011;4364;52.426;9.424;2022-11-20T05:03:40;14.27;;;8.77;;
8652;SDS011;4364;52.426;9.424;2022-11-20T05:06:08;12.80;;;8.27;;
8652;SDS011;4364;52.426;9.424;2022-11-20T05:08:37;13.77;;;8.53;;
8652;SDS011;4364;52.426;9.424;2022-11-20T05:11:04;15.73;;;9.00;;
8652;SDS011;4364;52.426;9.424;2022-11-20T05:13:35;13.43;;;8.27;;
8652;SDS011;4364;52.426;9.424;2022-11-20T05:16:09;12.53;;;7.97;;
8652;SDS011;4364;52.426;9.424;2022-11-20T05:18:38;14.87;;;8.00;;
8652;SDS011;4364;52.426;9.424;2022-11-20T05:21:06;12.03;;;7.27;;
8652;SDS011;4364;52.426;9.424;2022-11-20T05:23:34;12.03;;;7.07;;
8652;SDS011;4364;52.426;9.424;2022-11-20T05:26:02;15.10;;;8.30;;
8652;SDS011;4364;52.426;9.424;2022-11-20T05:28:29;12.77;;;8.53;;
8652;SDS011;4364;52.426;9.424;2022-11-20T05:31:03;12.70;;;8.03;;
8652;SDS011;4364;52.426;9.424;2022-11-20T05:33:31;14.83;;;8.87;;
8652;SDS011;4364;52.426;9.424;2022-11-20T05:35:58;14.63;;;8.40;;
8652;SDS011;4364;52.426;9.424;2022-11-20T05:38:24;12.07;;;8.70;;
8652;SDS011;4364;52.426;9.424;2022-11-20T05:40:51;13.43;;;8.20;;
8652;SDS011;4364;52.426;9.424;2022-11-20T05:43:18;14.27;;;8.23;;
8652;SDS011;4364;52.426;9.424;2022-11-20T05:45:54;13.13;;;8.63;;
8652;SDS011;4364;52.426;9.424;2022-11-20T05:48:20;14.07;;;8.20;;
8652;SDS011;4364;52.426;9.424;2022-11-20T05:50:47;14.00;;;8.10;;
8652;SDS011;4364;52.426;9.424;2022-11-20T05:53:14;13.80;;;8.50;;
8652;SDS011;4364;52.426;9.424;2022-11-20T05:55:41;14.67;;;8.40;;
8652;SDS011;4364;52.426;9.424;2022-11-20T05:58:07;12.73;;;8.43;;
8652;SDS011;4364;52.426;9.424;2022-11-20T06:00:34;12.73;;;7.93;;
8652;SDS011;4364;52.426;9.424;2022-11-20T06:03:02;15.00;;;9.23;;
8652;SDS011;4364;52.426;9.424;2022-11-20T06:05:28;15.10;;;9.07;;
8652;SDS011;4364;52.426;9.424;2022-11-20T06:07:55;14.33;;;8.73;;
8652;SDS011;4364;52.426;9.424;2022-11-20T06:10:22;14.07;;;8.10;;
8652;SDS011;4364;52.426;9.424;2022-11-20T06:12:48;14.00;;;8.87;;
8652;SDS011;4364;52.426;9.424;2022-11-20T06:15:15;14.00;;;9.60;;
8652;SDS011;4364;52.426;9.424;2022-11-20T06:17:41;12.30;;;8.40;;
8652;SDS011;4364;52.426;9.424;2022-11-20T06:20:08;14.97;;;8.77;;
8652;SDS011;4364;52.426;9.424;2022-11-20T06:22:35;17.10;;;9.97;;
8652;SDS011;4364;52.426;9.424;2022-11-20T06:25:01;13.63;;;8.43;;
8652;SDS011;4364;52.426;9.424;2022-11-20T06:27:28;14.03;;;8.37;;
8652;SDS011;4364;52.426;9.424;2022-11-20T06:29:54;12.00;;;7.30;;
8652;SDS011;4364;52.426;9.424;2022-11-20T06:32:21;14.40;;;8.70;;
8652;SDS011;4364;52.426;9.424;2022-11-20T06:34:48;15.50;;;9.00;;
8652;SDS011;4364;52.426;9.424;2022-11-20T06:37:14;13.77;;;7.90;;
8652;SDS011;4364;52.426;9.424;2022-11-20T06:39:41;14.00;;;8.27;;
8652;SDS011;4364;52.426;9.424;2022-11-20T06:42:07;13.20;;;8.17;;
8652;SDS011;4364;52.426;9.424;2022-11-20T06:44:33;17.80;;;10.47;;
8652;SDS011;4364;52.426;9.424;2022-11-20T06:47:00;15.17;;;9.20;;
8652;SDS011;4364;52.426;9.424;2022-11-20T06:49:27;14.73;;;8.63;;
8652;SDS011;4364;52.426;9.424;2022-11-20T06:51:54;13.50;;;8.83;;
8652;SDS011;4364;52.426;9.424;2022-11-20T06:54:21;15.40;;;8.00;;
8652;SDS011;4364;52.426;9.424;2022-11-20T06:56:48;12.40;;;7.80;;
8652;SDS011;4364;52.426;9.424;2022-11-20T06:59:14;12.77;;;7.70;;
8652;SDS011;4364;52.426;9.424;2022-11-20T07:01:41;11.27;;;8.07;;
8652;SDS011;4364;52.426;9.424;2022-11-20T07:04:07;13.63;;;8.50;;
8652;SDS011;4364;52.426;9.424;2022-11-20T07:06:34;14.57;;;8.43;;
8652;SDS011;4364;52.426;9.424;2022-11-20T07:09:00;13.57;;;9.20;;
8652;SDS011;4364;52.426;9.424;2022-11-20T07:11:27;14.13;;;9.30;;
8652;SDS011;4364;52.426;9.424;2022-11-20T07:13:54;13.97;;;8.50;;
8652;SDS011;4364;52.426;9.424;2022-11-20T07:16:21;16.20;;;8.63;;
8652;SDS011;4364;52.426;9.424;2022-11-20T07:18:48;15.97;;;8.80;;
8652;SDS011;4364;52.426;9.424;2022-11-20T07:21:16;14.60;;;7.90;;
8652;SDS011;4364;52.426;9.424;2022-11-20T07:23:43;14.97;;;8.70;;
8652;SDS011;4364;52.426;9.424;2022-11-20T07:26:10;14.30;;;8.73;;
8652;SDS011;4364;52.426;9.424;2022-11-20T07:28:37;15.90;;;9.20;;
8652;SDS011;4364;52.426;9.424;2022-11-20T07:31:04;15.17;;;8.90;;
8652;SDS011;4364;52.426;9.424;2022-11-20T07:33:32;13.47;;;9.23;;
8652;SDS011;4364;52.426;9.424;2022-11-20T07:35:59;16.13;;;10.00;;
8652;SDS011;4364;52.426;9.424;2022-11-20T07:38:26;14.90;;;9.00;;
8652;SDS011;4364;52.426;9.424;2022-11-20T07:40:57;13.67;;;8.67;;
8652;SDS011;4364;52.426;9.424;2022-11-20T07:43:24;15.30;;;9.03;;
8652;SDS011;4364;52.426;9.424;2022-11-20T07:45:51;15.07;;;9.43;;
8652;SDS011;4364;52.426;9.424;2022-11-20T07:48:18;19.37;;;12.30;;
8652;SDS011;4364;52.426;9.424;2022-11-20T07:50:44;14.97;;;10.27;;
8652;SDS011;4364;52.426;9.424;2022-11-20T07:53:11;15.20;;;9.70;;
8652;SDS011;4364;52.426;9.424;2022-11-20T07:55:39;14.77;;;9.87;;
8652;SDS011;4364;52.426;9.424;2022-11-20T07:58:06;15.80;;;9.30;;
8652;SDS011;4364;52.426;9.424;2022-11-20T08:00:33;15.10;;;9.40;;
8652;SDS011;4364;52.426;9.424;2022-11-20T08:03:02;14.93;;;9.63;;
8652;SDS011;4364;52.426;9.424;2022-11-20T08:05:29;14.50;;;9.33;;
8652;SDS011;4364;52.426;9.424;2022-11-20T08:07:56;13.97;;;9.03;;
8652;SDS011;4364;52.426;9.424;2022-11-20T08:10:22;15.17;;;8.70;;
8652;SDS011;4364;52.426;9.424;2022-11-20T08:12:50;14.27;;;9.53;;
8652;SDS011;4364;52.426;9.424;2022-11-20T08:15:37;17.50;;;9.20;;
8652;SDS011;4364;52.426;9.424;2022-11-20T08:18:05;15.60;;;9.37;;
8652;SDS011;4364;52.426;9.424;2022-11-20T08:20:54;15.43;;;9.27;;
8652;SDS011;4364;52.426;9.424;2022-11-20T08:23:22;13.47;;;9.13;;
8652;SDS011;4364;52.426;9.424;2022-11-20T08:25:49;15.83;;;9.73;;
8652;SDS011;4364;52.426;9.424;2022-11-20T08:28:17;15.37;;;9.53;;
8652;SDS011;4364;52.426;9.424;2022-11-20T08:30:47;14.47;;;9.27;;
8652;SDS011;4364;52.426;9.424;2022-11-20T08:33:14;13.23;;;9.07;;
8652;SDS011;4364;52.426;9.424;2022-11-20T08:35:41;15.43;;;9.40;;
8652;SDS011;4364;52.426;9.424;2022-11-20T08:38:08;16.80;;;9.60;;
8652;SDS011;4364;52.426;9.424;2022-11-20T08:40:35;14.33;;;9.90;;
8652;SDS011;4364;52.426;9.424;2022-11-20T08:43:02;14.40;;;9.47;;
8652;SDS011;4364;52.426;9.424;2022-11-20T08:45:28;17.47;;;10.03;;
8652;SDS011;4364;52.426;9.424;2022-11-20T08:48:00;14.67;;;9.70;;
8652;SDS011;4364;52.426;9.424;2022-11-20T08:50:30;15.60;;;9.43;;
8652;SDS011;4364;52.426;9.424;2022-11-20T08:53:03;17.23;;;9.47;;
8652;SDS011;4364;52.426;9.424;2022-11-20T08:55:30;14.03;;;9.43;;
8652;SDS011;4364;52.426;9.424;2022-11-20T08:57:57;15.77;;;10.43;;
8652;SDS011;4364;52.426;9.424;2022-11-20T09:00:23;18.20;;;10.00;;
8652;SDS011;4364;52.426;9.424;2022-11-20T09:02:51;16.30;;;9.50;;
8652;SDS011;4364;52.426;9.424;2022-11-20T09:05:18;15.03;;;9.40;;
8652;SDS011;4364;52.426;9.424;2022-11-20T09:07:45;14.83;;;9.70;;
8652;SDS011;4364;52.426;9.424;2022-11-20T09:10:11;14.47;;;9.33;;
8652;SDS011;4364;52.426;9.424;2022-11-20T09:12:54;18.63;;;10.47;;
8652;SDS011;4364;52.426;9.424;2022-11-20T09:15:24;18.00;;;9.67;;
8652;SDS011;4364;52.426;9.424;2022-11-20T09:20:26;16.90;;;10.30;;
8652;SDS011;4364;52.426;9.424;2022-11-20T09:22:55;18.80;;;10.47;;
8652;SDS011;4364;52.426;9.424;2022-11-20T09:25:23;16.23;;;9.50;;
8652;SDS011;4364;52.426;9.424;2022-11-20T09:27:59;16.23;;;9.77;;
8652;SDS011;4364;52.426;9.424;2022-11-20T09:30:27;14.43;;;9.53;;
8652;SDS011;4364;52.426;9.424;2022-11-20T09:32:54;14.93;;;9.77;;
8652;SDS011;4364;52.426;9.424;2022-11-20T09:35:21;15.13;;;9.37;;
8652;SDS011;4364;52.426;9.424;2022-11-20T09:37:47;17.57;;;10.87;;
8652;SDS011;4364;52.426;9.424;2022-11-20T09:40:27;15.70;;;10.57;;
8652;SDS011;4364;52.426;9.424;2022-11-20T09:43:03;16.23;;;9.87;;
8652;SDS011;4364;52.426;9.424;2022-11-20T09:51:09;18.17;;;10.33;;
8652;SDS011;4364;52.426;9.424;2022-11-20T09:56:17;21.10;;;11.50;;
8652;SDS011;4364;52.426;9.424;2022-11-20T09:58:52;16.77;;;11.20;;
8652;SDS011;4364;52.426;9.424;2022-11-20T10:01:21;16.83;;;11.20;;
8652;SDS011;4364;52.426;9.424;2022-11-20T10:04:02;16.83;;;10.63;;
8652;SDS011;4364;52.426;9.424;2022-11-20T10:06:32;18.60;;;11.53;;
8652;SDS011;4364;52.426;9.424;2022-11-20T10:11:46;16.83;;;10.97;;
8652;SDS011;4364;52.426;9.424;2022-11-20T10:23:14;15.03;;;9.67;;
8652;SDS011;4364;52.426;9.424;2022-11-20T10:26:06;16.87;;;10.10;;
8652;SDS011;4364;52.426;9.424;2022-11-20T10:29:10;14.53;;;9.07;;
8652;SDS011;4364;52.426;9.424;2022-11-20T10:31:40;16.33;;;10.20;;
8652;SDS011;4364;52.426;9.424;2022-11-20T10:37:09;18.53;;;11.47;;
8652;SDS011;4364;52.426;9.424;2022-11-20T10:39:49;20.80;;;14.83;;
8652;SDS011;4364;52.426;9.424;2022-11-20T10:42:28;19.00;;;10.87;;
8652;SDS011;4364;52.426;9.424;2022-11-20T10:47:47;14.27;;;9.80;;
8652;SDS011;4364;52.426;9.424;2022-11-20T10:50:16;17.30;;;9.67;;
8652;SDS011;4364;52.426;9.424;2022-11-20T10:55:33;14.67;;;9.33;;
8652;SDS011;4364;52.426;9.424;2022-11-20T10:58:36;14.10;;;9.53;;
8652;SDS011;4364;52.426;9.424;2022-11-20T11:01:17;15.07;;;9.97;;
8652;SDS011;4364;52.426;9.424;2022-11-20T11:03:48;15.20;;;9.33;;
8652;SDS011;4364;52.426;9.424;2022-11-20T11:08:51;15.27;;;9.10;;
8652;SDS011;4364;52.426;9.424;2022-11-20T11:11:22;13.77;;;9.43;;
8652;SDS011;4364;52.426;9.424;2022-11-20T11:13:50;15.60;;;9.43;;
8652;SDS011;4364;52.426;9.424;2022-11-20T11:16:26;16.43;;;9.97;;
8652;SDS011;4364;52.426;9.424;2022-11-20T11:19:03;18.87;;;10.80;;
8652;SDS011;4364;52.426;9.424;2022-11-20T11:21:37;15.50;;;9.33;;
8652;SDS011;4364;52.426;9.424;2022-11-20T11:24:15;16.70;;;9.77;;
8652;SDS011;4364;52.426;9.424;2022-11-20T11:27:13;19.30;;;11.23;;
8652;SDS011;4364;52.426;9.424;2022-11-20T11:29:43;20.33;;;11.57;;
8652;SDS011;4364;52.426;9.424;2022-11-20T11:32:20;18.30;;;11.63;;
8652;SDS011;4364;52.426;9.424;2022-11-20T11:37:35;14.93;;;10.00;;
8652;SDS011;4364;52.426;9.424;2022-11-20T11:40:05;15.80;;;10.57;;
8652;SDS011;4364;52.426;9.424;2022-11-20T11:42:56;16.77;;;10.37;;
8652;SDS011;4364;52.426;9.424;2022-11-20T11:45:26;16.17;;;10.47;;
8652;SDS011;4364;52.426;9.424;2022-11-20T11:47:53;19.83;;;10.87;;
8652;SDS011;4364;52.426;9.424;2022-11-20T11:50:25;16.20;;;10.63;;
8652;SDS011;4364;52.426;9.424;2022-11-20T12:04:15;17.53;;;10.77;;
8652;SDS011;4364;52.426;9.424;2022-11-20T12:06:44;17.57;;;11.20;;
8652;SDS011;4364;52.426;9.424;2022-11-20T12:09:48;18.20;;;11.30;;
8652;SDS011;4364;52.426;9.424;2022-11-20T12:12:20;23.10;;;12.93;;
8652;SDS011;4364;52.426;9.424;2022-11-20T12:14:51;17.67;;;11.13;;
8652;SDS011;4364;52.426;9.424;2022-11-20T12:17:20;33.93;;;18.40;;
8652;SDS011;4364;52.426;9.424;2022-11-20T12:19:47;32.57;;;17.77;;
8652;SDS011;4364;52.426;9.424;2022-11-20T12:25:07;20.43;;;12.73;;
8652;SDS011;4364;52.426;9.424;2022-11-20T12:27:41;21.00;;;12.23;;
8652;SDS011;4364;52.426;9.424;2022-11-20T12:30:19;20.67;;;13.40;;
8652;SDS011;4364;52.426;9.424;2022-11-20T12:38:07;21.70;;;12.67;;
8652;SDS011;4364;52.426;9.424;2022-11-20T12:43:22;21.27;;;13.17;;
8652;SDS011;4364;52.426;9.424;2022-11-20T12:48:38;21.00;;;12.37;;
8652;SDS011;4364;52.426;9.424;2022-11-20T13:04:48;21.13;;;12.50;;
8652;SDS011;4364;52.426;9.424;2022-11-20T13:07:44;18.90;;;12.33;;
8652;SDS011;4364;52.426;9.424;2022-11-20T13:10:18;20.47;;;13.10;;
8652;SDS011;4364;52.426;9.424;2022-11-20T13:12:55;19.00;;;11.70;;
8652;SDS011;4364;52.426;9.424;2022-11-20T13:18:09;19.37;;;11.30;;
8652;SDS011;4364;52.426;9.424;2022-11-20T13:20:41;20.73;;;11.47;;
8652;SDS011;4364;52.426;9.424;2022-11-20T13:23:10;19.03;;;11.70;;
8652;SDS011;4364;52.426;9.424;2022-11-20T13:25:37;19.77;;;12.13;;
8652;SDS011;4364;52.426;9.424;2022-11-20T13:30:35;22.23;;;12.60;;
8652;SDS011;4364;52.426;9.424;2022-11-20T13:38:07;18.67;;;12.13;;
8652;SDS011;4364;52.426;9.424;2022-11-20T13:40:39;19.97;;;12.97;;
8652;SDS011;4364;52.426;9.424;2022-11-20T13:45:54;19.93;;;12.27;;
8652;SDS011;4364;52.426;9.424;2022-11-20T13:48:39;23.03;;;13.80;;
8652;SDS011;4364;52.426;9.424;2022-11-20T13:51:12;20.80;;;12.67;;
8652;SDS011;4364;52.426;9.424;2022-11-20T13:54:01;22.97;;;12.90;;
8652;SDS011;4364;52.426;9.424;2022-11-20T14:02:19;19.47;;;12.47;;
8652;SDS011;4364;52.426;9.424;2022-11-20T14:04:49;21.47;;;12.57;;
8652;SDS011;4364;52.426;9.424;2022-11-20T14:07:20;19.63;;;12.43;;
8652;SDS011;4364;52.426;9.424;2022-11-20T14:09:53;22.63;;;13.33;;
8652;SDS011;4364;52.426;9.424;2022-11-20T14:12:23;21.43;;;13.70;;
8652;SDS011;4364;52.426;9.424;2022-11-20T14:14:54;67.57;;;25.77;;
8652;SDS011;4364;52.426;9.424;2022-11-20T14:17:30;59.73;;;23.57;;
8652;SDS011;4364;52.426;9.424;2022-11-20T14:20:03;35.43;;;16.80;;
8652;SDS011;4364;52.426;9.424;2022-11-20T14:22:32;31.03;;;17.23;;
8652;SDS011;4364;52.426;9.424;2022-11-20T14:25:03;29.80;;;16.27;;
8652;SDS011;4364;52.426;9.424;2022-11-20T14:27:47;27.70;;;17.00;;
8652;SDS011;4364;52.426;9.424;2022-11-20T14:30:19;26.67;;;16.23;;
8652;SDS011;4364;52.426;9.424;2022-11-20T14:32:49;25.37;;;15.37;;
8652;SDS011;4364;52.426;9.424;2022-11-20T14:35:21;24.73;;;16.00;;
8652;SDS011;4364;52.426;9.424;2022-11-20T14:37:55;22.50;;;14.10;;
8652;SDS011;4364;52.426;9.424;2022-11-20T14:42:50;23.93;;;14.47;;
8652;SDS011;4364;52.426;9.424;2022-11-20T14:45:16;22.47;;;14.07;;
8652;SDS011;4364;52.426;9.424;2022-11-20T14:47:44;24.67;;;15.23;;
8652;SDS011;4364;52.426;9.424;2022-11-20T14:50:19;23.37;;;14.93;;
8652;SDS011;4364;52.426;9.424;2022-11-20T14:52:51;20.53;;;13.57;;
8652;SDS011;4364;52.426;9.424;2022-11-20T14:55:29;22.90;;;13.40;;
8652;SDS011;4364;52.426;9.424;2022-11-20T14:58:05;31.47;;;17.33;;
8652;SDS011;4364;52.426;9.424;2022-11-20T15:00:33;29.80;;;16.70;;
8652;SDS011;4364;52.426;9.424;2022-11-20T15:03:14;26.23;;;15.00;;
8652;SDS011;4364;52.426;9.424;2022-11-20T15:05:45;20.00;;;13.53;;
8652;SDS011;4364;52.426;9.424;2022-11-20T15:08:15;22.80;;;13.47;;
8652;SDS011;4364;52.426;9.424;2022-11-20T15:10:46;23.67;;;14.87;;
8652;SDS011;4364;52.426;9.424;2022-11-20T15:13:29;26.57;;;15.73;;
8652;SDS011;4364;52.426;9.424;2022-11-20T15:15:59;34.83;;;18.97;;
8652;SDS011;4364;52.426;9.424;2022-11-20T15:18:28;43.17;;;23.03;;
8652;SDS011;4364;52.426;9.424;2022-11-20T15:21:00;41.40;;;22.20;;
8652;SDS011;4364;52.426;9.424;2022-11-20T15:23:29;32.70;;;18.47;;
8652;SDS011;4364;52.426;9.424;2022-11-20T15:25:56;28.57;;;17.67;;
8652;SDS011;4364;52.426;9.424;2022-11-20T15:28:26;29.03;;;17.30;;
8652;SDS011;4364;52.426;9.424;2022-11-20T15:30:56;24.03;;;16.10;;
8652;SDS011;4364;52.426;9.424;2022-11-20T15:33:23;28.07;;;17.57;;
8652;SDS011;4364;52.426;9.424;2022-11-20T15:35:50;28.50;;;18.40;;
8652;SDS011;4364;52.426;9.424;2022-11-20T15:38:16;28.03;;;18.30;;
8652;SDS011;4364;52.426;9.424;2022-11-20T15:40:43;28.43;;;18.37;;
8652;SDS011;4364;52.426;9.424;2022-11-20T15:43:09;26.43;;;17.73;;
8652;SDS011;4364;52.426;9.424;2022-11-20T15:45:49;29.53;;;18.07;;
8652;SDS011;4364;52.426;9.424;2022-11-20T15:48:19;26.70;;;16.83;;
8652;SDS011;4364;52.426;9.424;2022-11-20T15:53:33;27.40;;;16.33;;
8652;SDS011;4364;52.426;9.424;2022-11-20T15:56:00;26.23;;;16.97;;
8652;SDS011;4364;52.426;9.424;2022-11-20T15:58:27;23.47;;;15.27;;
8652;SDS011;4364;52.426;9.424;2022-11-20T16:00:54;25.17;;;15.20;;
8652;SDS011;4364;52.426;9.424;2022-11-20T16:03:21;29.30;;;16.53;;
8652;SDS011;4364;52.426;9.424;2022-11-20T16:05:48;26.63;;;16.03;;
8652;SDS011;4364;52.426;9.424;2022-11-20T16:08:15;28.83;;;16.50;;
8652;SDS011;4364;52.426;9.424;2022-11-20T16:10:41;30.10;;;18.03;;
8652;SDS011;4364;52.426;9.424;2022-11-20T16:13:15;27.33;;;17.00;;
8652;SDS011;4364;52.426;9.424;2022-11-20T16:16:13;27.50;;;17.43;;
8652;SDS011;4364;52.426;9.424;2022-11-20T16:18:49;28.13;;;17.53;;
8652;SDS011;4364;52.426;9.424;2022-11-20T16:21:16;29.67;;;17.53;;
8652;SDS011;4364;52.426;9.424;2022-11-20T16:23:43;29.77;;;18.97;;
8652;SDS011;4364;52.426;9.424;2022-11-20T16:26:13;32.77;;;20.03;;
8652;SDS011;4364;52.426;9.424;2022-11-20T16:28:43;30.10;;;19.40;;
8652;SDS011;4364;52.426;9.424;2022-11-20T16:34:03;34.87;;;20.17;;
8652;SDS011;4364;52.426;9.424;2022-11-20T16:36:40;34.03;;;20.13;;
8652;SDS011;4364;52.426;9.424;2022-11-20T16:39:08;32.63;;;20.00;;
8652;SDS011;4364;52.426;9.424;2022-11-20T16:41:35;33.83;;;20.77;;
8652;SDS011;4364;52.426;9.424;2022-11-20T16:44:06;39.47;;;21.97;;
8652;SDS011;4364;52.426;9.424;2022-11-20T16:46:36;71.37;;;37.00;;
8652;SDS011;4364;52.426;9.424;2022-11-20T16:49:04;82.23;;;43.47;;
8652;SDS011;4364;52.426;9.424;2022-11-20T16:51:34;75.00;;;40.07;;
8652;SDS011;4364;52.426;9.424;2022-11-20T16:54:02;61.27;;;33.13;;
8652;SDS011;4364;52.426;9.424;2022-11-20T16:56:30;56.90;;;32.93;;